createdAt,value
2019-01-31T00:02:58.287Z,35.60
2019-01-31T00:08:11.948Z,32.27
2019-01-31T00:13:25.223Z,35.27
2019-01-31T00:18:38.524Z,29.53
2019-01-31T00:24:04.571Z,27.40
2019-01-31T00:29:24.468Z,28.57
2019-01-31T00:35:06.688Z,27.80
2019-01-31T00:40:20.441Z,24.73
2019-01-31T00:45:30.916Z,27.00
2019-01-31T00:51:00.024Z,30.63
2019-01-31T00:56:07.848Z,27.70
2019-01-31T01:01:43.003Z,24.33
2019-01-31T01:06:56.553Z,18.80
2019-01-31T01:12:32.633Z,19.73
2019-01-31T01:17:40.361Z,21.03
2019-01-31T01:22:53.890Z,22.17
2019-01-31T01:28:04.602Z,21.57
2019-01-31T01:33:24.060Z,24.17
2019-01-31T01:38:34.538Z,22.10
2019-01-31T01:44:06.929Z,20.13
2019-01-31T01:49:17.161Z,23.27
2019-01-31T01:54:41.404Z,21.90
2019-01-31T02:00:04.067Z,22.20
2019-01-31T02:05:23.941Z,23.30
2019-01-31T02:10:37.309Z,22.37
2019-01-31T02:15:50.962Z,23.27
2019-01-31T02:21:14.034Z,24.17
2019-01-31T02:26:24.611Z,31.37
2019-01-31T02:31:38.150Z,24.17
2019-01-31T02:36:54.576Z,28.13
2019-01-31T02:42:31.439Z,24.63
2019-01-31T02:47:57.517Z,25.07
2019-01-31T02:53:22.020Z,27.13
2019-01-31T02:58:52.468Z,24.70
2019-01-31T03:04:29.258Z,24.27
2019-01-31T03:09:55.025Z,24.33
2019-01-31T03:14:58.303Z,22.33
2019-01-31T03:20:06.221Z,23.03
2019-01-31T03:25:22.949Z,25.20
2019-01-31T03:30:47.363Z,28.77
2019-01-31T03:36:04.174Z,20.77
2019-01-31T03:41:32.775Z,19.53
2019-01-31T03:46:55.542Z,21.47
2019-01-31T03:52:08.869Z,22.43
2019-01-31T03:57:16.700Z,22.00
2019-01-31T04:02:30.661Z,20.17
2019-01-31T04:07:36.330Z,19.37
2019-01-31T04:12:41.069Z,20.20
2019-01-31T04:17:45.810Z,19.07
2019-01-31T04:22:50.779Z,19.83
2019-01-31T04:27:55.399Z,19.80
2019-01-31T04:33:00.141Z,20.90
2019-01-31T04:38:04.988Z,20.17
2019-01-31T04:43:09.619Z,33.77
2019-01-31T04:48:14.371Z,21.13
2019-01-31T04:53:18.999Z,17.60
2019-01-31T04:58:23.647Z,23.33
2019-01-31T05:03:28.599Z,28.07
2019-01-31T05:08:34.452Z,18.90
2019-01-31T05:13:39.415Z,15.03
2019-01-31T05:18:44.053Z,12.27
2019-01-31T05:23:48.901Z,12.10
2019-01-31T05:28:53.641Z,13.53
2019-01-31T05:33:58.488Z,17.57
2019-01-31T05:39:04.355Z,30.00
2019-01-31T05:44:09.110Z,32.07
2019-01-31T05:49:13.950Z,35.23
2019-01-31T05:54:18.684Z,31.77
2019-01-31T05:59:23.535Z,33.10
2019-01-31T06:04:28.176Z,34.30
2019-01-31T06:09:32.810Z,42.53
2019-01-31T06:14:42.577Z,34.10
2019-01-31T06:19:51.904Z,35.57
2019-01-31T06:25:01.537Z,51.17
2019-01-31T06:30:14.097Z,45.03
2019-01-31T06:35:19.873Z,29.80
2019-01-31T06:40:24.615Z,27.00
2019-01-31T06:45:29.240Z,22.47
2019-01-31T06:50:33.898Z,32.10
2019-01-31T06:55:38.637Z,26.33
2019-01-31T07:00:43.481Z,28.73
2019-01-31T07:05:48.228Z,27.47
2019-01-31T07:10:52.860Z,28.20
2019-01-31T07:15:57.624Z,19.20
2019-01-31T07:21:02.353Z,20.53
2019-01-31T07:26:07.001Z,20.80
2019-01-31T07:31:11.738Z,19.10
2019-01-31T07:57:03.051Z,45.47
2019-01-31T08:02:07.800Z,52.00
2019-01-31T08:07:12.538Z,47.57
2019-01-31T08:12:17.302Z,51.07
2019-01-31T08:17:21.922Z,51.00
2019-01-31T09:29:54.542Z,31.63
2019-01-31T09:35:11.166Z,29.13
2019-01-31T09:40:37.545Z,17.40
2019-01-31T09:45:54.240Z,14.17
2019-01-31T09:51:17.006Z,16.47
2019-01-31T09:56:43.149Z,19.03
2019-01-31T10:02:10.417Z,16.33
2019-01-31T10:07:39.541Z,17.43
2019-01-31T10:12:50.125Z,13.30
2019-01-31T10:18:28.387Z,14.93
2019-01-31T10:24:06.677Z,15.13
2019-01-31T10:29:18.897Z,15.83
2019-01-31T10:34:32.747Z,26.20
2019-01-31T10:39:52.751Z,11.43
2019-01-31T10:45:09.575Z,10.07
2019-01-31T10:50:48.010Z,10.40
2019-01-31T10:56:01.865Z,12.93
2019-01-31T11:01:18.488Z,13.90
2019-01-31T11:06:52.207Z,17.30
2019-01-31T11:12:04.431Z,14.60
2019-01-31T11:17:12.348Z,11.87
2019-01-31T11:22:28.325Z,16.63
2019-01-31T11:27:56.935Z,19.13
2019-01-31T11:33:07.434Z,13.27
2019-01-31T11:38:27.434Z,18.63
2019-01-31T11:43:40.886Z,12.57
2019-01-31T11:48:54.427Z,10.30
2019-01-31T11:54:07.879Z,12.43
2019-01-31T11:59:12.620Z,8.93
2019-01-31T12:04:17.473Z,10.93
2019-01-31T12:09:22.217Z,18.90
2019-01-31T12:14:27.065Z,8.90
2019-01-31T12:19:31.595Z,9.60
2019-01-31T12:24:36.842Z,7.97
2019-01-31T12:29:41.421Z,7.30
2019-01-31T12:34:46.129Z,12.60
2019-01-31T12:39:52.166Z,8.67
2019-01-31T12:44:57.049Z,9.17
2019-01-31T12:50:01.793Z,7.20
2019-01-31T12:55:07.202Z,12.30
2019-01-31T13:24:53.810Z,8.10
2019-01-31T13:29:58.727Z,10.20
2019-01-31T13:35:03.703Z,19.70
2019-01-31T13:40:16.741Z,45.43
2019-01-31T13:45:27.890Z,27.40
2019-01-31T13:50:32.786Z,15.93
2019-01-31T13:55:37.674Z,16.77
2019-01-31T14:00:42.679Z,30.50
2019-01-31T14:05:47.434Z,36.00
2019-01-31T14:10:52.165Z,17.60
2019-01-31T14:15:57.121Z,19.63
2019-01-31T14:21:01.961Z,19.03
2019-01-31T14:26:06.706Z,39.77
2019-01-31T14:31:11.547Z,19.37
2019-01-31T14:36:16.394Z,8.80
2019-01-31T14:41:21.055Z,8.80
2019-01-31T14:46:25.939Z,14.77
2019-01-31T14:51:30.825Z,18.70
2019-01-31T14:56:35.576Z,20.43
2019-01-31T15:01:40.310Z,33.63
2019-01-31T15:06:45.917Z,12.80
2019-01-31T15:11:50.721Z,10.80
2019-01-31T15:16:56.080Z,32.37
2019-01-31T15:22:00.841Z,34.23
2019-01-31T15:27:05.566Z,22.50
2019-01-31T15:32:11.201Z,23.47
2019-01-31T15:37:17.102Z,53.10
2019-01-31T15:42:21.845Z,22.33
2019-01-31T15:47:26.587Z,23.50
2019-01-31T15:52:31.326Z,17.60
2019-01-31T15:57:35.959Z,21.87
2019-01-31T16:02:40.711Z,31.40
2019-01-31T16:07:45.557Z,21.43
2019-01-31T16:12:50.326Z,30.23
2019-01-31T16:17:55.147Z,24.03
2019-01-31T16:22:59.887Z,20.40
2019-01-31T16:28:04.941Z,26.63
2019-01-31T16:33:09.683Z,28.20
2019-01-31T16:38:14.332Z,27.30
2019-01-31T16:43:19.172Z,20.40
2019-01-31T16:48:24.329Z,25.63
2019-01-31T16:53:29.064Z,14.97
2019-01-31T16:58:34.022Z,15.20
2019-01-31T17:03:38.612Z,12.40
2019-01-31T17:08:43.496Z,9.07
2019-01-31T17:13:49.368Z,10.07
2019-01-31T17:18:54.980Z,19.73
2019-01-31T17:24:00.084Z,34.73
2019-01-31T17:29:05.043Z,57.67
2019-01-31T17:34:09.877Z,58.87
2019-01-31T17:39:15.026Z,26.10
2019-01-31T17:44:19.872Z,19.47
2019-01-31T17:49:25.744Z,18.47
2019-01-31T17:54:30.813Z,8.13
2019-01-31T17:59:36.150Z,8.73
2019-01-31T18:04:40.893Z,11.63
2019-01-31T18:09:47.096Z,20.00
2019-01-31T18:14:51.813Z,25.60
2019-01-31T18:19:57.418Z,18.17
2019-01-31T18:25:02.029Z,21.87
2019-01-31T18:30:09.830Z,27.27
2019-01-31T18:35:15.011Z,20.80
2019-01-31T18:40:24.848Z,21.50
2019-01-31T18:45:32.155Z,18.20
2019-01-31T18:50:39.416Z,13.60
2019-01-31T18:55:44.302Z,10.00
2019-01-31T19:00:49.456Z,16.93
2019-01-31T19:05:54.563Z,23.80
2019-01-31T19:11:01.251Z,21.33
2019-01-31T19:16:06.243Z,23.47
2019-01-31T19:21:11.103Z,22.30
2019-01-31T19:26:15.831Z,20.47
2019-01-31T19:31:21.084Z,15.53
2019-01-31T19:36:25.829Z,6.83
2019-01-31T19:41:30.528Z,5.17
2019-01-31T19:46:36.239Z,6.13
2019-01-31T19:51:40.965Z,8.33
2019-01-31T19:56:45.818Z,9.30
2019-01-31T20:01:51.591Z,8.83
2019-01-31T20:06:56.454Z,13.73
2019-01-31T20:12:01.280Z,13.70
2019-01-31T20:17:08.553Z,10.47
2019-01-31T20:22:13.426Z,15.07
2019-01-31T20:27:18.274Z,10.37
2019-01-31T20:32:23.124Z,9.40
2019-01-31T20:37:28.273Z,7.70
2019-01-31T20:42:33.014Z,8.87
2019-01-31T20:47:37.868Z,7.97
2019-01-31T20:52:43.007Z,8.27
2019-01-31T20:57:47.957Z,8.77
2019-01-31T21:02:53.946Z,11.33
2019-01-31T21:07:58.672Z,7.53
2019-01-31T21:13:03.398Z,8.87
2019-01-31T21:18:08.362Z,8.00
2019-01-31T21:23:14.235Z,11.87
2019-01-31T21:28:18.974Z,13.57
2019-01-31T21:33:23.734Z,14.87
2019-01-31T21:38:28.464Z,12.20
2019-01-31T21:43:34.737Z,13.83
2019-01-31T21:48:39.787Z,17.03
2019-01-31T21:53:44.637Z,17.47
2019-01-31T21:58:49.382Z,26.53
2019-01-31T22:03:54.225Z,28.20
2019-01-31T22:08:58.759Z,25.13
2019-01-31T22:14:03.400Z,26.13
2019-01-31T22:19:08.139Z,24.97
2019-01-31T22:24:12.886Z,19.23
2019-01-31T22:29:17.624Z,18.93
2019-01-31T22:34:22.375Z,21.80
2019-01-31T22:39:27.215Z,18.80
2019-01-31T22:44:32.067Z,18.40
2019-01-31T22:49:36.914Z,19.57
2019-01-31T22:54:41.712Z,21.23
2019-01-31T22:59:46.492Z,27.57
2019-01-31T23:04:53.387Z,27.87
2019-01-31T23:09:58.439Z,20.27
2019-01-31T23:15:03.185Z,14.00
2019-01-31T23:20:11.199Z,12.53
2019-01-31T23:25:16.141Z,13.07
2019-01-31T23:30:20.954Z,11.67
2019-01-31T23:35:25.754Z,14.37
2019-01-31T23:40:30.471Z,17.80
2019-01-31T23:45:35.120Z,14.43
2019-01-31T23:50:39.859Z,12.53
2019-01-31T23:55:44.498Z,9.90
